Time;durP1;ratioP1;P1;durP2;ratioP2;P2;SDS_P1;SDS_P2;PMS_P1;PMS_P2;Temp;Humidity;BMP_temperature;BMP_pressure;BME280_temperature;BME280_humidity;BME280_pressure;Samples;Min_cycle;Max_cycle;Signal;HPM_P1;HPM_P2
2021/08/31 00:01:01;;;;;;;3.47;1.67;;;23.30;89.40;;;;;;5076715;28;20051;-64
2021/08/31 00:03:29;;;;;;;2.55;1.50;;;23.30;89.40;;;;;;5094804;28;20127;-64
2021/08/31 00:05:57;;;;;;;3.83;1.83;;;23.30;89.50;;;;;;5094838;28;20044;-64
2021/08/31 00:08:24;;;;;;;3.17;1.38;;;23.30;89.60;;;;;;5094708;28;20573;-64
2021/08/31 00:10:52;;;;;;;2.33;1.40;;;23.30;89.50;;;;;;5094637;28;20072;-64
2021/08/31 00:13:19;;;;;;;2.03;1.10;;;23.30;89.60;;;;;;5076795;28;20052;-64
2021/08/31 00:15:47;;;;;;;1.90;1.15;;;23.30;89.50;;;;;;5076793;28;20390;-64
2021/08/31 00:18:14;;;;;;;10.23;1.63;;;23.30;89.50;;;;;;5094594;28;20123;-64
2021/08/31 00:20:46;;;;;;;2.55;1.60;;;23.30;89.40;;;;;;5094647;28;20048;-64
2021/08/31 00:23:13;;;;;;;2.35;1.20;;;23.30;89.30;;;;;;5094387;28;20398;-65
2021/08/31 00:25:41;;;;;;;2.03;1.25;;;23.40;89.40;;;;;;5094599;28;20033;-65
2021/08/31 00:28:08;;;;;;;2.03;1.10;;;23.40;89.50;;;;;;5094587;28;20047;-64
2021/08/31 00:30:36;;;;;;;1.88;1.40;;;23.30;89.60;;;;;;5094267;28;20516;-62
2021/08/31 00:33:04;;;;;;;3.60;1.27;;;23.40;89.50;;;;;;5094266;28;20508;-62
2021/08/31 00:35:31;;;;;;;3.58;1.40;;;23.40;89.50;;;;;;5076021;28;20523;-63
2021/08/31 00:38:00;;;;;;;4.20;1.30;;;23.30;89.40;;;;;;5094194;28;20044;-63
2021/08/31 00:40:28;;;;;;;1.73;1.10;;;23.30;89.60;;;;;;5076618;28;20047;-64
2021/08/31 00:42:55;;;;;;;2.65;1.27;;;23.40;89.50;;;;;;5094475;28;20073;-64
2021/08/31 00:45:24;;;;;;;2.53;1.13;;;23.30;89.50;;;;;;5094133;28;20054;-64
2021/08/31 00:47:51;;;;;;;2.70;1.38;;;23.30;89.70;;;;;;5076045;28;20708;-63
2021/08/31 00:50:20;;;;;;;2.17;1.25;;;23.30;89.90;;;;;;5093859;28;20056;-64
2021/08/31 00:52:48;;;;;;;2.42;1.50;;;23.20;90.00;;;;;;5094017;28;20113;-63
2021/08/31 00:55:16;;;;;;;2.72;1.60;;;23.20;90.00;;;;;;5076257;28;20051;-63
2021/08/31 00:57:44;;;;;;;1.83;1.33;;;23.20;90.10;;;;;;5076326;28;20056;-63
2021/08/31 01:00:13;;;;;;;1.92;1.30;;;23.20;90.10;;;;;;5076118;28;20051;-64
2021/08/31 01:02:42;;;;;;;2.72;1.35;;;23.20;90.10;;;;;;5094223;28;20040;-63
2021/08/31 01:05:11;;;;;;;2.92;1.40;;;23.20;90.00;;;;;;5075678;28;20093;-63
2021/08/31 01:07:39;;;;;;;1.58;1.10;;;23.20;90.00;;;;;;5093705;28;20494;-64
2021/08/31 01:10:09;;;;;;;2.38;1.20;;;23.20;89.90;;;;;;5093950;28;20535;-64
2021/08/31 01:12:39;;;;;;;1.60;1.00;;;23.20;89.60;;;;;;5093769;28;20052;-64
2021/08/31 01:15:07;;;;;;;1.27;1.00;;;23.20;90.00;;;;;;5075975;28;20044;-64
2021/08/31 01:17:35;;;;;;;2.85;1.30;;;23.20;89.50;;;;;;5093771;28;20044;-64
2021/08/31 01:20:03;;;;;;;2.55;1.10;;;23.20;89.60;;;;;;5093830;28;20348;-64
2021/08/31 01:22:31;;;;;;;1.48;1.08;;;23.20;89.50;;;;;;5093665;28;20467;-64
2021/08/31 01:25:03;;;;;;;2.80;1.25;;;23.20;89.60;;;;;;5093829;28;20039;-64
2021/08/31 01:27:31;;;;;;;1.45;0.90;;;23.20;89.70;;;;;;5093702;28;20051;-64
2021/08/31 01:30:00;;;;;;;2.35;1.52;;;23.20;89.60;;;;;;5093347;28;20579;-63
2021/08/31 01:32:28;;;;;;;2.10;1.00;;;23.20;89.20;;;;;;5092644;28;20044;-64
2021/08/31 01:34:55;;;;;;;3.50;1.00;;;23.20;89.10;;;;;;5092559;28;20118;-64
2021/08/31 01:37:23;;;;;;;2.42;1.40;;;23.20;88.90;;;;;;5095684;28;20101;-64
2021/08/31 01:39:50;;;;;;;2.45;1.20;;;23.20;88.70;;;;;;5096285;28;20075;-64
2021/08/31 01:42:19;;;;;;;1.13;0.88;;;23.20;88.80;;;;;;5078462;28;20086;-64
2021/08/31 01:44:46;;;;;;;1.95;1.20;;;23.30;88.80;;;;;;5078017;28;20105;-64
2021/08/31 01:47:14;;;;;;;1.90;1.10;;;23.30;88.90;;;;;;5096070;28;20382;-64
2021/08/31 01:49:42;;;;;;;1.80;0.95;;;23.30;89.00;;;;;;5096356;28;20488;-64
2021/08/31 01:52:09;;;;;;;3.25;1.30;;;23.20;89.00;;;;;;5096481;28;20480;-64
2021/08/31 01:54:37;;;;;;;1.75;1.10;;;23.20;89.10;;;;;;5095994;28;20055;-64
2021/08/31 01:57:04;;;;;;;2.58;1.10;;;23.20;88.90;;;;;;5096064;28;20070;-64
2021/08/31 01:59:32;;;;;;;2.50;1.13;;;23.20;89.00;;;;;;5095909;28;20105;-64
2021/08/31 02:02:00;;;;;;;2.03;1.25;;;23.20;89.10;;;;;;5095685;28;20392;-64
2021/08/31 02:04:28;;;;;;;1.48;0.90;;;23.20;89.10;;;;;;5078292;28;20047;-64
2021/08/31 02:06:55;;;;;;;1.60;1.08;;;23.20;89.20;;;;;;5095651;28;20052;-64
2021/08/31 02:09:23;;;;;;;1.63;0.90;;;23.20;89.30;;;;;;5095765;28;20052;-64
2021/08/31 02:11:50;;;;;;;2.00;1.08;;;23.10;89.50;;;;;;5095729;28;20448;-64
2021/08/31 02:14:18;;;;;;;3.47;1.00;;;23.10;89.70;;;;;;5095625;28;20405;-63
2021/08/31 02:16:45;;;;;;;1.95;0.90;;;23.10;89.90;;;;;;5060835;28;20059;-64
2021/08/31 02:19:13;;;;;;;1.70;1.10;;;23.10;90.00;;;;;;5095882;28;20490;-64
2021/08/31 02:21:40;;;;;;;1.75;1.10;;;23.10;90.00;;;;;;5095562;28;20048;-64
2021/08/31 02:24:09;;;;;;;2.22;1.20;;;23.00;90.00;;;;;;5095563;28;20044;-64
2021/08/31 02:26:37;;;;;;;1.48;1.00;;;23.00;90.00;;;;;;5095629;28;20053;-64
2021/08/31 02:29:06;;;;;;;1.83;1.08;;;23.00;90.00;;;;;;5049127;28;1312380;-64
2021/08/31 02:31:34;;;;;;;1.42;0.80;;;23.00;90.00;;;;;;5096734;28;20051;-64
2021/08/31 02:34:01;;;;;;;2.13;1.00;;;23.00;90.10;;;;;;5078872;28;20142;-64
2021/08/31 02:36:29;;;;;;;1.15;0.90;;;22.90;90.10;;;;;;5096764;28;20253;-64
2021/08/31 02:38:57;;;;;;;1.35;1.00;;;22.90;90.10;;;;;;5096918;28;20040;-64
2021/08/31 02:41:24;;;;;;;2.40;0.93;;;22.90;90.20;;;;;;5096540;28;20048;-63
2021/08/31 02:43:52;;;;;;;2.67;1.00;;;22.90;90.10;;;;;;5096435;28;20541;-64
2021/08/31 02:46:19;;;;;;;4.00;1.08;;;22.90;90.00;;;;;;5096299;28;20048;-63
2021/08/31 02:48:47;;;;;;;2.42;1.65;;;22.90;90.10;;;;;;5096464;28;20036;-64
2021/08/31 02:51:15;;;;;;;3.20;1.35;;;22.80;90.40;;;;;;5096354;28;20048;-64
2021/08/31 02:53:42;;;;;;;2.78;1.40;;;22.70;90.50;;;;;;5078448;28;20490;-64
2021/08/31 02:56:10;;;;;;;1.70;1.17;;;22.70;90.70;;;;;;5096121;28;20045;-63
2021/08/31 02:58:37;;;;;;;1.88;1.25;;;22.60;90.80;;;;;;5096096;28;20741;-64
2021/08/31 03:01:15;;;;;;;2.03;1.33;;;22.40;90.60;;;;;;5096260;28;20432;-64
2021/08/31 03:03:44;;;;;;;1.50;0.93;;;22.40;90.50;;;;;;5096256;28;20063;-64
2021/08/31 03:06:11;;;;;;;2.42;1.10;;;22.30;90.50;;;;;;5078159;28;20128;-64
2021/08/31 03:08:39;;;;;;;2.75;1.25;;;22.20;90.50;;;;;;5095954;28;20399;-64
2021/08/31 03:11:06;;;;;;;2.17;1.17;;;22.20;90.50;;;;;;5095855;28;20060;-63
2021/08/31 03:13:34;;;;;;;2.38;1.08;;;22.20;90.50;;;;;;5096048;28;20079;-64
2021/08/31 03:16:02;;;;;;;1.58;1.10;;;22.20;90.50;;;;;;5095898;28;20397;-64
2021/08/31 03:18:29;;;;;;;2.17;0.98;;;22.30;90.40;;;;;;5095949;28;20222;-64
2021/08/31 03:20:57;;;;;;;2.40;1.55;;;22.30;90.30;;;;;;5095822;28;20490;-64
2021/08/31 03:23:24;;;;;;;1.35;0.90;;;22.40;90.30;;;;;;5095599;28;20040;-63
2021/08/31 03:25:52;;;;;;;1.98;1.10;;;22.40;90.30;;;;;;5095581;28;20044;-64
2021/08/31 03:28:20;;;;;;;3.80;1.00;;;22.50;90.30;;;;;;5077900;28;20043;-63
2021/08/31 03:30:47;;;;;;;2.22;1.23;;;22.50;90.10;;;;;;5095443;28;20059;-64
2021/08/31 03:33:16;;;;;;;2.30;1.27;;;22.60;89.90;;;;;;5095532;28;20402;-64
2021/08/31 03:35:43;;;;;;;2.75;1.10;;;22.60;89.60;;;;;;5077208;28;20497;-64
2021/08/31 03:38:12;;;;;;;3.42;1.25;;;22.70;89.40;;;;;;5095508;28;20083;-63
2021/08/31 03:40:40;;;;;;;1.77;1.23;;;22.70;89.30;;;;;;5095395;28;20048;-64
2021/08/31 03:43:07;;;;;;;2.97;0.90;;;22.70;89.20;;;;;;5095338;28;20405;-64
2021/08/31 03:45:35;;;;;;;1.45;0.80;;;22.70;89.00;;;;;;5077462;28;20525;-64
2021/08/31 03:48:03;;;;;;;1.90;0.90;;;22.80;89.00;;;;;;5095190;28;20032;-64
2021/08/31 03:50:30;;;;;;;1.83;0.90;;;22.80;89.00;;;;;;5095082;28;20070;-64
2021/08/31 03:52:58;;;;;;;3.17;0.73;;;22.80;88.70;;;;;;5095045;28;20040;-64
2021/08/31 03:55:25;;;;;;;1.35;0.90;;;22.80;88.40;;;;;;5095133;28;20040;-64
2021/08/31 03:57:53;;;;;;;1.38;0.90;;;22.80;88.30;;;;;;5094715;28;20052;-64
2021/08/31 04:00:21;;;;;;;3.35;1.00;;;22.80;88.00;;;;;;5076466;28;20494;-64
2021/08/31 04:02:48;;;;;;;1.48;0.80;;;22.80;87.90;;;;;;5095012;28;20619;-64
2021/08/31 04:05:16;;;;;;;2.33;1.00;;;22.80;87.80;;;;;;5094749;28;20109;-64
2021/08/31 04:07:43;;;;;;;1.75;1.00;;;22.80;87.80;;;;;;5094829;28;20493;-64
2021/08/31 04:10:12;;;;;;;0.80;0.80;;;22.80;87.80;;;;;;5094783;28;20047;-64
2021/08/31 04:12:40;;;;;;;1.25;0.90;;;22.80;87.80;;;;;;5094921;28;20051;-64
2021/08/31 04:15:08;;;;;;;1.80;0.70;;;22.80;87.80;;;;;;5094691;28;20375;-63
2021/08/31 04:17:36;;;;;;;1.83;0.80;;;22.70;87.80;;;;;;5076787;28;20044;-64
2021/08/31 04:20:06;;;;;;;1.67;1.05;;;22.70;88.00;;;;;;5060077;28;20119;-63
2021/08/31 04:22:34;;;;;;;1.77;1.20;;;22.70;88.00;;;;;;5094519;28;20117;-64
2021/08/31 04:25:01;;;;;;;0.70;0.70;;;22.70;87.90;;;;;;5094725;28;20048;-64
2021/08/31 04:27:29;;;;;;;1.08;0.70;;;22.60;87.70;;;;;;5094653;28;20065;-64
2021/08/31 04:29:57;;;;;;;2.47;0.70;;;22.60;88.00;;;;;;5094547;28;20067;-64
2021/08/31 04:32:24;;;;;;;3.60;1.42;;;22.70;87.50;;;;;;5076496;28;20044;-63
2021/08/31 04:34:55;;;;;;;1.13;0.80;;;22.70;87.20;;;;;;5094028;28;20085;-64
2021/08/31 04:37:23;;;;;;;0.98;0.70;;;22.80;87.20;;;;;;5094396;28;20055;-64
2021/08/31 04:39:50;;;;;;;2.28;0.82;;;22.80;87.00;;;;;;5094536;28;20050;-64
2021/08/31 04:42:18;;;;;;;1.17;0.80;;;22.90;86.80;;;;;;5076323;28;20048;-64
2021/08/31 04:44:45;;;;;;;2.50;0.88;;;23.00;86.60;;;;;;5094767;28;20385;-64
2021/08/31 04:47:15;;;;;;;3.08;0.90;;;23.10;86.30;;;;;;5094016;28;20050;-64
2021/08/31 04:49:42;;;;;;;1.08;0.70;;;23.20;86.00;;;;;;5076457;28;20039;-64
2021/08/31 04:52:10;;;;;;;1.85;0.70;;;23.30;85.90;;;;;;5076390;28;20093;-64
2021/08/31 04:54:38;;;;;;;1.85;0.80;;;23.40;85.30;;;;;;5094230;28;20036;-64
2021/08/31 04:57:05;;;;;;;2.10;0.90;;;23.60;85.10;;;;;;5076154;28;20059;-64
2021/08/31 04:59:33;;;;;;;1.38;0.82;;;23.70;84.60;;;;;;5093877;28;20048;-64
2021/08/31 05:02:00;;;;;;;1.10;0.88;;;23.80;84.60;;;;;;5093674;28;20067;-64
2021/08/31 05:04:29;;;;;;;1.58;0.90;;;24.00;84.30;;;;;;5093363;28;20039;-64
2021/08/31 05:06:56;;;;;;;1.17;0.73;;;24.10;83.90;;;;;;5094103;28;20138;-64
2021/08/31 05:09:24;;;;;;;0.82;0.70;;;24.30;83.30;;;;;;5093802;28;20448;-64
2021/08/31 05:11:53;;;;;;;1.60;0.60;;;24.40;82.70;;;;;;5076025;28;20067;-64
2021/08/31 05:14:20;;;;;;;0.77;0.63;;;24.60;82.30;;;;;;5093742;28;20417;-64
2021/08/31 05:16:48;;;;;;;0.65;0.57;;;24.80;81.80;;;;;;5093602;28;20044;-64
2021/08/31 05:19:15;;;;;;;2.55;0.75;;;24.90;81.40;;;;;;5093893;28;20089;-64
2021/08/31 05:21:43;;;;;;;1.65;0.90;;;25.00;81.30;;;;;;5093863;28;20493;-64
2021/08/31 05:24:11;;;;;;;0.98;0.60;;;25.20;81.50;;;;;;5093770;28;20044;-64
2021/08/31 05:26:38;;;;;;;0.93;0.70;;;25.30;81.90;;;;;;5093689;28;20048;-64
2021/08/31 05:29:06;;;;;;;1.08;0.65;;;25.40;82.50;;;;;;5093632;28;20044;-64
2021/08/31 05:31:33;;;;;;;1.63;0.90;;;25.50;82.70;;;;;;5093599;28;20113;-64
2021/08/31 05:34:01;;;;;;;0.93;0.65;;;25.60;83.60;;;;;;5093612;28;20050;-64
2021/08/31 05:36:29;;;;;;;2.17;0.88;;;25.70;83.90;;;;;;5093862;28;20489;-64
2021/08/31 05:38:58;;;;;;;0.63;0.57;;;25.90;84.40;;;;;;5093679;28;20036;-64
2021/08/31 05:41:26;;;;;;;1.90;0.90;;;26.00;84.50;;;;;;5093551;28;20040;-64
2021/08/31 05:43:53;;;;;;;2.47;0.80;;;26.10;85.40;;;;;;5093395;28;20044;-64
2021/08/31 05:46:21;;;;;;;3.33;1.20;;;26.20;85.60;;;;;;5075291;28;20148;-64
2021/08/31 05:48:48;;;;;;;5.45;0.90;;;26.40;86.40;;;;;;5093572;28;20040;-64
2021/08/31 05:51:18;;;;;;;3.10;1.30;;;26.50;86.60;;;;;;5093582;28;20075;-64
2021/08/31 05:53:46;;;;;;;2.88;1.48;;;26.60;86.70;;;;;;5093685;28;20044;-64
2021/08/31 05:56:13;;;;;;;1.10;0.80;;;26.70;86.70;;;;;;5093270;28;20044;-64
2021/08/31 05:58:41;;;;;;;2.00;0.80;;;26.80;86.80;;;;;;5093218;28;20051;-64
2021/08/31 06:01:08;;;;;;;1.23;0.80;;;26.80;86.90;;;;;;5093248;28;20047;-64
2021/08/31 06:03:36;;;;;;;2.03;0.77;;;26.90;87.00;;;;;;5093921;28;20363;-64
2021/08/31 06:06:03;;;;;;;0.98;0.70;;;27.00;86.50;;;;;;5093660;28;20046;-64
2021/08/31 06:08:33;;;;;;;2.58;1.23;;;27.10;86.20;;;;;;5075529;28;20139;-64
2021/08/31 06:11:00;;;;;;;1.55;0.90;;;27.20;85.90;;;;;;5075216;28;20048;-64
2021/08/31 06:13:28;;;;;;;1.42;0.90;;;27.20;84.70;;;;;;5075030;28;20047;-64
2021/08/31 06:15:56;;;;;;;1.63;1.08;;;27.30;84.80;;;;;;5093144;28;20048;-64
2021/08/31 06:18:24;;;;;;;1.25;0.80;;;27.30;84.60;;;;;;5093269;28;20050;-64
2021/08/31 06:20:52;;;;;;;3.97;1.25;;;27.40;83.60;;;;;;5093251;28;20078;-64
2021/08/31 06:23:19;;;;;;;0.70;0.60;;;27.50;83.50;;;;;;5078163;28;20047;-64
2021/08/31 06:25:47;;;;;;;1.38;0.93;;;27.60;82.90;;;;;;5096819;28;20111;-64
2021/08/31 06:28:15;;;;;;;1.20;0.70;;;27.60;82.60;;;;;;5096771;28;20040;-64
2021/08/31 06:30:43;;;;;;;2.33;0.77;;;27.60;82.20;;;;;;5096895;28;20048;-64
2021/08/31 06:33:10;;;;;;;2.45;0.80;;;27.60;82.20;;;;;;5096933;28;20098;-64
2021/08/31 06:35:38;;;;;;;1.38;0.77;;;27.70;82.40;;;;;;5078508;28;20055;-64
2021/08/31 06:38:06;;;;;;;1.50;0.57;;;27.80;81.40;;;;;;5096493;28;20079;-64
2021/08/31 06:40:33;;;;;;;2.58;0.70;;;27.70;81.60;;;;;;5096414;28;20547;-64
2021/08/31 06:43:01;;;;;;;0.75;0.60;;;27.80;81.60;;;;;;5078311;28;20543;-64
2021/08/31 06:45:29;;;;;;;1.52;0.70;;;27.90;81.50;;;;;;5078739;28;20044;-64
2021/08/31 06:47:56;;;;;;;1.42;0.80;;;28.00;81.10;;;;;;5096751;28;20161;-64
2021/08/31 06:50:24;;;;;;;0.88;0.63;;;28.10;81.00;;;;;;5096694;28;20040;-62
2021/08/31 06:52:51;;;;;;;1.65;1.13;;;28.20;81.20;;;;;;5096332;28;20044;-62
2021/08/31 06:55:19;;;;;;;3.33;0.95;;;28.30;81.60;;;;;;5096239;28;20055;-62
2021/08/31 06:57:47;;;;;;;5.50;2.08;;;28.40;81.80;;;;;;5096160;28;20040;-62
2021/08/31 07:00:15;;;;;;;1.90;1.05;;;28.50;82.20;;;;;;5078358;28;20040;-62
2021/08/31 07:02:42;;;;;;;6.82;1.30;;;28.60;82.60;;;;;;5078461;28;20069;-62
2021/08/31 07:05:11;;;;;;;1.90;0.93;;;28.70;82.60;;;;;;5096134;28;20086;-62
2021/08/31 07:07:39;;;;;;;1.40;1.02;;;28.90;81.80;;;;;;5096112;28;20036;-63
2021/08/31 07:10:08;;;;;;;2.17;1.13;;;29.00;81.30;;;;;;5078215;28;20398;-62
2021/08/31 07:12:35;;;;;;;4.35;1.08;;;29.00;80.80;;;;;;5077934;28;20040;-63
2021/08/31 07:15:03;;;;;;;2.65;1.13;;;29.00;81.20;;;;;;5096110;28;20505;-63
2021/08/31 07:17:31;;;;;;;2.70;1.05;;;29.10;81.50;;;;;;5096035;28;20044;-62
2021/08/31 07:19:58;;;;;;;2.08;1.20;;;29.20;81.40;;;;;;5095841;28;20044;-63
2021/08/31 07:22:26;;;;;;;1.45;1.02;;;29.30;81.20;;;;;;5078019;28;20050;-62
2021/08/31 07:24:53;;;;;;;2.28;1.00;;;29.30;81.20;;;;;;5095622;28;20052;-62
2021/08/31 07:27:21;;;;;;;1.77;1.00;;;29.40;81.20;;;;;;5077630;28;20431;-62
2021/08/31 07:29:48;;;;;;;3.97;1.02;;;29.50;80.50;;;;;;5095231;28;20061;-62
2021/08/31 07:32:16;;;;;;;2.45;1.10;;;29.60;80.40;;;;;;5096007;28;20045;-63
2021/08/31 07:34:44;;;;;;;4.40;1.20;;;29.70;80.60;;;;;;5094169;28;20044;-62
2021/08/31 07:37:11;;;;;;;1.48;1.10;;;29.80;80.60;;;;;;5060724;28;20047;-63
2021/08/31 07:39:39;;;;;;;2.85;1.30;;;29.90;80.60;;;;;;5094800;28;20040;-63
2021/08/31 07:42:07;;;;;;;2.00;1.20;;;30.00;80.50;;;;;;5077392;28;20121;-63
2021/08/31 07:44:34;;;;;;;2.13;1.20;;;30.10;80.20;;;;;;5095498;28;20036;-63
2021/08/31 07:47:02;;;;;;;1.65;1.20;;;30.20;79.90;;;;;;5077234;28;20589;-63
2021/08/31 07:49:30;;;;;;;3.65;1.33;;;30.20;79.60;;;;;;5095133;28;20546;-63
2021/08/31 07:51:57;;;;;;;2.40;1.20;;;30.30;79.70;;;;;;5095340;28;20043;-63
2021/08/31 07:54:25;;;;;;;2.42;1.58;;;30.10;78.80;;;;;;5095116;28;20074;-62
2021/08/31 07:56:53;;;;;;;2.28;1.50;;;30.20;79.50;;;;;;5094873;28;20055;-63
2021/08/31 07:59:20;;;;;;;2.90;1.20;;;30.10;79.10;;;;;;5095174;28;20047;-62
2021/08/31 08:01:48;;;;;;;2.95;1.42;;;30.10;79.20;;;;;;5077198;28;20078;-63
2021/08/31 08:04:16;;;;;;;4.07;1.23;;;30.30;79.20;;;;;;5094992;28;20044;-63
2021/08/31 08:06:44;;;;;;;2.60;0.95;;;30.50;78.90;;;;;;5094669;28;20444;-63
2021/08/31 08:09:11;;;;;;;1.85;1.48;;;30.60;78.20;;;;;;5094627;28;20044;-63
2021/08/31 08:11:39;;;;;;;1.67;1.27;;;30.90;77.60;;;;;;5060367;28;20048;-64
2021/08/31 08:14:07;;;;;;;2.17;1.38;;;31.00;76.70;;;;;;5095021;28;20486;-64
2021/08/31 08:16:34;;;;;;;3.08;1.35;;;31.00;76.80;;;;;;5076872;28;20036;-64
2021/08/31 08:19:02;;;;;;;1.85;1.08;;;30.80;76.40;;;;;;5076348;28;20131;-63
2021/08/31 08:21:30;;;;;;;2.28;1.52;;;30.60;76.40;;;;;;5076752;28;20043;-64
2021/08/31 08:23:58;;;;;;;2.65;1.33;;;30.40;76.60;;;;;;5076522;28;20464;-64
2021/08/31 08:26:25;;;;;;;3.08;1.10;;;30.40;76.40;;;;;;5076620;28;20040;-64
2021/08/31 08:28:53;;;;;;;4.45;1.50;;;30.30;77.10;;;;;;5094473;28;20410;-64
2021/08/31 08:31:21;;;;;;;2.75;1.25;;;30.40;76.40;;;;;;5076570;28;20052;-63
2021/08/31 08:33:48;;;;;;;2.17;1.02;;;30.40;76.20;;;;;;5094447;28;20125;-63
2021/08/31 08:36:17;;;;;;;1.95;0.98;;;30.50;76.10;;;;;;5075974;28;20489;-63
2021/08/31 08:38:44;;;;;;;2.03;1.30;;;30.60;76.30;;;;;;5094381;28;20054;-64
2021/08/31 08:41:12;;;;;;;1.33;0.93;;;30.60;75.80;;;;;;5076495;28;20047;-63
2021/08/31 08:43:40;;;;;;;2.40;1.02;;;30.80;75.60;;;;;;5076234;28;20524;-64
2021/08/31 08:46:08;;;;;;;1.42;0.90;;;30.80;75.40;;;;;;5093779;28;20435;-64
2021/08/31 08:48:36;;;;;;;3.83;1.63;;;31.00;75.00;;;;;;5093927;28;20048;-64
2021/08/31 08:51:05;;;;;;;1.98;1.10;;;30.90;75.10;;;;;;5093996;28;20055;-63
2021/08/31 08:53:34;;;;;;;3.72;1.02;;;30.90;74.50;;;;;;5075957;28;20082;-63
2021/08/31 08:56:02;;;;;;;1.90;1.00;;;31.00;74.80;;;;;;5094293;28;20050;-63
2021/08/31 08:58:30;;;;;;;1.48;0.98;;;31.10;75.00;;;;;;5075890;28;20040;-64
2021/08/31 09:01:08;;;;;;;2.00;1.50;;;31.10;74.70;;;;;;5094074;28;20040;-63
2021/08/31 09:03:39;;;;;;;6.78;1.35;;;31.30;73.80;;;;;;5094052;28;20040;-63
2021/08/31 09:06:18;;;;;;;3.20;0.98;;;31.10;74.00;;;;;;5094145;28;20040;-64
2021/08/31 09:08:55;;;;;;;3.17;1.27;;;31.10;74.00;;;;;;5094328;28;20435;-64
2021/08/31 09:11:32;;;;;;;1.80;0.93;;;30.70;73.80;;;;;;5093888;28;20044;-64
2021/08/31 09:14:20;;;;;;;1.70;0.80;;;30.60;74.30;;;;;;5093716;28;20052;-64
2021/08/31 09:16:54;;;;;;;1.42;1.00;;;30.60;74.50;;;;;;5093779;28;20056;-64
2021/08/31 09:19:32;;;;;;;2.13;0.85;;;30.50;74.70;;;;;;5076074;28;20485;-64
2021/08/31 09:22:13;;;;;;;1.48;1.00;;;30.60;74.30;;;;;;5093618;28;20044;-64
2021/08/31 09:24:55;;;;;;;1.20;0.85;;;30.60;73.60;;;;;;5093666;28;20071;-64
2021/08/31 09:27:41;;;;;;;1.83;0.90;;;30.60;73.80;;;;;;5075648;28;20051;-64
2021/08/31 09:30:22;;;;;;;;;;;30.70;73.90;;;;;;5094158;28;20501;-64
2021/08/31 09:33:08;;;;;;;4.22;1.13;;;30.40;73.60;;;;;;5093525;28;19920;-64
2021/08/31 09:35:58;;;;;;;3.25;1.20;;;29.90;74.80;;;;;;5075972;28;20377;-64
2021/08/31 09:38:57;;;;;;;2.47;0.90;;;29.70;75.80;;;;;;5093557;28;20497;-64
2021/08/31 09:41:37;;;;;;;1.70;0.80;;;29.80;75.40;;;;;;5093793;28;20048;-64
2021/08/31 09:44:11;;;;;;;2.50;1.08;;;30.00;74.80;;;;;;5093786;28;20040;-64
2021/08/31 09:46:48;;;;;;;1.48;1.00;;;30.20;74.50;;;;;;5093754;28;20409;-64
2021/08/31 09:49:21;;;;;;;1.92;0.82;;;30.10;75.50;;;;;;5093371;28;20044;-64
2021/08/31 09:52:14;;;;;;;1.30;0.85;;;30.10;76.00;;;;;;5093412;28;20052;-64
2021/08/31 09:54:46;;;;;;;2.78;1.00;;;30.30;75.90;;;;;;5093673;28;20040;-64
2021/08/31 09:57:31;;;;;;;1.88;1.38;;;30.40;75.40;;;;;;5094616;28;20044;-64
2021/08/31 10:00:00;;;;;;;1.95;1.10;;;30.50;75.10;;;;;;5097576;28;20055;-64
2021/08/31 10:02:31;;;;;;;1.63;0.88;;;30.60;75.00;;;;;;5097280;28;20493;-63
2021/08/31 10:04:59;;;;;;;1.60;1.20;;;30.80;74.00;;;;;;5096941;28;20048;-63
2021/08/31 10:07:28;;;;;;;3.85;0.90;;;30.90;73.60;;;;;;5097168;28;20052;-64
2021/08/31 10:09:57;;;;;;;7.47;1.35;;;30.90;73.60;;;;;;5078911;28;20040;-63
2021/08/31 10:12:24;;;;;;;2.15;0.90;;;30.80;73.70;;;;;;5097240;28;20080;-64
2021/08/31 10:14:58;;;;;;;1.30;0.77;;;30.90;73.80;;;;;;5078747;28;20101;-63
2021/08/31 10:17:27;;;;;;;3.28;1.50;;;31.00;73.90;;;;;;5096927;28;20047;-63
2021/08/31 10:19:58;;;;;;;2.90;1.20;;;30.90;75.10;;;;;;5097203;28;20044;-64
2021/08/31 10:22:28;;;;;;;2.78;1.10;;;30.80;76.20;;;;;;5097090;28;20093;-63
2021/08/31 10:24:58;;;;;;;2.53;0.95;;;30.60;76.30;;;;;;5096814;28;20398;-64
2021/08/31 10:27:42;;;;;;;2.83;1.42;;;30.30;77.20;;;;;;5079096;28;20044;-63
2021/08/31 10:30:13;;;;;;;5.00;1.85;;;30.20;77.60;;;;;;5096784;28;20128;-63
2021/08/31 10:32:49;;;;;;;1.63;0.80;;;30.20;77.50;;;;;;5096606;28;20040;-63
2021/08/31 10:35:50;;;;;;;2.22;1.00;;;30.30;77.70;;;;;;5096607;28;20543;-64
2021/08/31 10:38:42;;;;;;;2.15;1.05;;;30.40;78.10;;;;;;5091730;28;20516;-63
2021/08/31 10:41:43;;;;;;;1.42;1.13;;;30.20;78.50;;;;;;5096667;28;20040;-63
2021/08/31 10:44:13;;;;;;;2.75;0.95;;;30.10;79.20;;;;;;5026260;28;20040;-63
2021/08/31 10:47:11;;;;;;;4.03;1.80;;;30.10;79.10;;;;;;5096421;28;20378;-63
2021/08/31 10:49:57;;;;;;;1.80;1.00;;;30.20;78.90;;;;;;5076326;28;20048;-63
2021/08/31 10:52:46;;;;;;;3.22;1.20;;;30.20;78.90;;;;;;5096354;28;20409;-63
2021/08/31 10:55:26;;;;;;;3.83;1.40;;;29.80;79.20;;;;;;5096611;28;20498;-63
2021/08/31 10:57:56;;;;;;;1.90;0.95;;;29.80;79.60;;;;;;5096255;28;20051;-63
2021/08/31 11:00:28;;;;;;;1.92;1.08;;;29.70;79.60;;;;;;5096473;28;20046;-63
2021/08/31 11:02:59;;;;;;;1.52;1.33;;;29.90;79.70;;;;;;5096412;28;20040;-64
2021/08/31 11:05:29;;;;;;;3.20;1.58;;;29.90;78.90;;;;;;5096052;28;20044;-63
2021/08/31 11:08:00;;;;;;;2.60;1.40;;;29.70;79.20;;;;;;5096118;28;20126;-63
2021/08/31 11:10:29;;;;;;;5.25;1.20;;;29.70;79.30;;;;;;5096225;28;20067;-63
2021/08/31 11:12:58;;;;;;;3.45;1.30;;;29.60;79.50;;;;;;5078103;28;20048;-62
2021/08/31 11:15:27;;;;;;;1.85;1.55;;;29.50;80.00;;;;;;5095804;28;20044;-63
2021/08/31 11:17:55;;;;;;;2.40;1.58;;;29.50;79.90;;;;;;5095639;28;20121;-63
2021/08/31 11:20:29;;;;;;;1.38;0.98;;;29.50;79.70;;;;;;5095820;28;20629;-63
2021/08/31 11:23:05;;;;;;;1.42;0.85;;;29.50;79.90;;;;;;5096050;28;20040;-64
2021/08/31 11:25:39;;;;;;;2.92;1.10;;;29.40;80.10;;;;;;5096028;28;20055;-63
2021/08/31 11:28:12;;;;;;;2.00;1.15;;;29.40;79.50;;;;;;5095768;28;20098;-63
2021/08/31 11:30:47;;;;;;;1.20;0.90;;;29.20;79.90;;;;;;5095407;28;20056;-63
2021/08/31 11:33:24;;;;;;;1.90;1.33;;;29.20;80.20;;;;;;5077837;28;20495;-63
2021/08/31 11:35:59;;;;;;;1.85;1.17;;;29.20;80.00;;;;;;5095677;28;20286;-64
2021/08/31 11:38:47;;;;;;;1.63;1.08;;;29.20;79.90;;;;;;5095190;28;20101;-63
2021/08/31 11:41:15;;;;;;;2.03;1.17;;;29.20;79.70;;;;;;5095376;28;20068;-63
2021/08/31 11:43:48;;;;;;;1.50;0.90;;;29.30;79.30;;;;;;5095542;28;20050;-63
2021/08/31 11:46:34;;;;;;;2.60;1.00;;;29.30;79.30;;;;;;5077708;28;20173;-64
2021/08/31 11:49:31;;;;;;;2.23;1.00;;;29.50;79.10;;;;;;5095215;28;20048;-63
2021/08/31 11:52:15;;;;;;;1.90;1.02;;;29.40;78.50;;;;;;5088637;28;20139;-64
2021/08/31 11:54:50;;;;;;;4.22;1.15;;;29.30;78.90;;;;;;5095519;28;20051;-64
2021/08/31 11:57:19;;;;;;;2.00;1.10;;;29.30;78.90;;;;;;5095015;28;20044;-63
2021/08/31 11:59:51;;;;;;;2.03;1.20;;;29.20;78.70;;;;;;5095043;28;20390;-62
2021/08/31 12:02:19;;;;;;;3.22;1.40;;;29.30;78.60;;;;;;5094758;28;20040;-63
2021/08/31 12:04:56;;;;;;;2.67;1.67;;;29.40;78.40;;;;;;5094809;28;20398;-62
2021/08/31 12:07:29;;;;;;;2.10;1.70;;;29.30;78.10;;;;;;5094265;28;20040;-62
2021/08/31 12:10:00;;;;;;;3.30;1.02;;;29.30;77.60;;;;;;5094928;28;20047;-62
2021/08/31 12:12:30;;;;;;;7.70;1.48;;;29.20;77.60;;;;;;5094473;28;20509;-62
2021/08/31 12:14:59;;;;;;;2.33;1.10;;;29.00;78.20;;;;;;5076732;28;20410;-62
2021/08/31 12:17:31;;;;;;;2.30;0.90;;;28.90;78.70;;;;;;5076247;28;20048;-62
2021/08/31 12:20:10;;;;;;;1.77;1.02;;;28.90;78.70;;;;;;5093907;28;20047;-62
2021/08/31 12:22:40;;;;;;;3.35;1.05;;;29.00;78.40;;;;;;5094598;28;20050;-63
2021/08/31 12:25:10;;;;;;;2.15;1.10;;;29.00;78.20;;;;;;5094378;28;20050;-63
2021/08/31 12:27:43;;;;;;;2.25;1.20;;;28.80;78.20;;;;;;5094402;28;20130;-64
2021/08/31 12:30:18;;;;;;;2.78;1.40;;;28.60;78.60;;;;;;5094174;28;20051;-62
2021/08/31 12:32:56;;;;;;;2.55;1.38;;;28.50;78.50;;;;;;5094538;28;20130;-62
2021/08/31 12:35:28;;;;;;;3.47;1.40;;;28.40;78.80;;;;;;5094182;28;20052;-63
2021/08/31 12:38:11;;;;;;;2.97;1.23;;;28.30;79.00;;;;;;5076354;28;20496;-63
2021/08/31 12:40:55;;;;;;;1.75;1.23;;;28.10;79.80;;;;;;5094077;28;20063;-62
2021/08/31 12:43:29;;;;;;;3.50;1.10;;;28.00;80.30;;;;;;5093930;28;20044;-62
2021/08/31 12:45:59;;;;;;;3.05;1.20;;;28.10;80.10;;;;;;5094042;28;20409;-62
2021/08/31 12:48:34;;;;;;;4.07;1.52;;;28.00;79.50;;;;;;5093684;28;20055;-63
2021/08/31 12:51:05;;;;;;;2.30;1.30;;;28.10;79.50;;;;;;5094108;28;20044;-62
2021/08/31 12:53:41;;;;;;;2.42;1.10;;;28.00;79.50;;;;;;5094168;28;20040;-64
2021/08/31 12:56:14;;;;;;;2.05;1.20;;;28.00;79.50;;;;;;5094243;28;20085;-62
2021/08/31 12:58:46;;;;;;;1.80;1.23;;;28.10;79.60;;;;;;5093899;28;20044;-62
2021/08/31 13:01:17;;;;;;;2.17;1.30;;;28.10;81.60;;;;;;5093951;28;20048;-63
2021/08/31 13:03:49;;;;;;;5.78;1.50;;;27.90;85.30;;;;;;5094148;28;20493;-62